| time (UTC) | temp F | wind direction | speed MPH | gust MPH | rain 1hr in | rain 24hr in | rain mn in | humidity % | barometer mb |
| 20260508091600 | 56 | 301 | 8.0 | 15.0 | 0.00 | 0.00 | 0.00 | 35 | 1024.3 |
| 20260508090046 | 55 | 304 | 5.0 | 15.0 | 0.00 | 0.00 | 0.00 | 34 | 1024.3 |
| 20260508084550 | 54 | 344 | 3.0 | 12.0 | 0.00 | 0.00 | 0.00 | 37 | 1024.3 |
| 20260508083051 | 54 | 320 | 7.0 | 16.0 | 0.00 | 0.00 | 0.00 | 37 | 1024.3 |
| 20260508081538 | 54 | 323 | 4.0 | 13.0 | 0.00 | 0.00 | 0.00 | 37 | 1024.3 |
| 20260508080058 | 54 | 278 | 6.0 | 11.0 | 0.00 | 0.00 | 0.00 | 43 | 1024.1 |
| 20260508074534 | 53 | 355 | 3.0 | 10.0 | 0.00 | 0.00 | 0.00 | 44 | 1024.0 |
| 20260508073028 | 53 | 333 | 5.0 | 11.0 | 0.00 | 0.00 | 0.00 | 46 | 1023.8 |
| 20260508071522 | 52 | 288 | 2.0 | 9.0 | 0.00 | 0.00 | 0.00 | 54 | 1023.8 |
| 20260508070022 | 50 | 312 | 1.0 | 6.0 | 0.00 | 0.00 | 0.00 | 60 | 1023.6 |
| 20260508064534 | 49 | 305 | 4.0 | 9.0 | 0.00 | 0.00 | 0.00 | 63 | 1023.5 |
| 20260508063010 | 48 | 317 | 2.0 | 8.0 | 0.00 | 0.00 | 0.00 | 67 | 1023.4 |
| 20260508061505 | 46 | 279 | 0.0 | 4.0 | 0.00 | 0.00 | 0.00 | 72 | 1023.2 |
| 20260508054559 | 43 | 271 | 4.0 | 9.0 | 0.00 | 0.00 | 0.00 | 83 | 1023.0 |
| 20260508053056 | 41 | 280 | 2.0 | 7.0 | 0.00 | 0.00 | 0.00 | 90 | 1022.8 |
| 20260508051550 | 39 | 307 | 1.0 | 7.0 | 0.00 | 0.00 | 0.00 | 93 | 1022.6 |
| 20260508050057 | 37 | 288 | 0.0 | 5.0 | 0.00 | 0.00 | 0.00 | 94 | 1022.4 |
| 20260508044541 | 35 | 238 | 1.0 | 5.0 | 0.00 | 0.00 | 0.00 | 94 | 1022.3 |
| 20260508043033 | 34 | 276 | 0.0 | 4.0 | 0.00 | 0.00 | 0.00 | 94 | 1022.1 |
| 20260508041529 | 33 | 258 | 1.0 | 5.0 | 0.00 | 0.00 | 0.00 | 94 | 1022.0 |
| 20260508040041 | 31 | 238 | 0.0 | 2.0 | 0.00 | 0.00 | 0.00 | 93 | 1021.9 |
| 20260508034529 | 29 | 192 | 0.0 | 1.0 | 0.00 | 0.00 | 0.00 | 93 | 1021.7 |
| 20260508033019 | 26 | 189 | 0.0 | 0.0 | 0.00 | 0.00 | 0.00 | 92 | 1021.7 |
| 20260508031519 | 24 | 189 | 0.0 | 0.0 | 0.00 | 0.00 | 0.00 | 91 | 1021.5 |
| 20260508030014 | 24 | 192 | 0.0 | 0.0 | 0.00 | 0.00 | 0.00 | 90 | 1021.4 |
| 20260508024521 | 23 | 192 | 0.0 | 0.0 | 0.00 | 0.00 | 0.00 | 89 | 1021.3 |
| 20260508023012 | 24 | 292 | 0.0 | 0.0 | 0.00 | 0.00 | 0.00 | 89 | 1021.2 |
| 20260508021508 | 24 | 292 | 0.0 | 0.0 | 0.00 | 0.00 | 0.00 | 88 | 1021.1 |
| 20260508020007 | 24 | 292 | 0.0 | 0.0 | 0.00 | 0.00 | 0.00 | 88 | 1021.1 |
| 20260508014504 | 24 | 292 | 0.0 | 0.0 | 0.00 | 0.00 | 0.00 | 87 | 1021.0 |
| 20260508013002 | 24 | 292 | 0.0 | 1.0 | 0.00 | 0.00 | 0.00 | 87 | 1020.8 |
| 20260508011558 | 25 | 292 | 0.0 | 0.0 | 0.00 | 0.00 | 0.00 | 86 | 1020.5 |
| 20260508010055 | 25 | 292 | 0.0 | 0.0 | 0.00 | 0.00 | 0.00 | 86 | 1020.5 |
| 20260508004555 | 26 | 292 | 0.0 | 0.0 | 0.00 | 0.00 | 0.00 | 86 | 1020.4 |
| 20260508003052 | 27 | 292 | 0.0 | 0.0 | 0.00 | 0.00 | 0.00 | 86 | 1020.2 |
| 20260508001548 | 27 | 292 | 0.0 | 0.0 | 0.00 | 0.00 | 0.00 | 86 | 1020.0 |
| 20260508000047 | 28 | 292 | 0.0 | 0.0 | 0.00 | 0.00 | 0.00 | 86 | 1020.0 |
| 20260507234552 | 28 | 292 | 0.0 | 0.0 | 0.00 | 0.00 | 0.00 | 87 | 1019.7 |
| 20260507233056 | 29 | 292 | 0.0 | 1.0 | 0.00 | 0.00 | 0.00 | 86 | 1019.7 |
| 20260507231539 | 29 | 292 | 0.0 | 2.0 | 0.00 | 0.00 | 0.00 | 85 | 1019.6 |
| 20260507230036 | 29 | 292 | 0.0 | 1.0 | 0.00 | 0.00 | 0.00 | 84 | 1019.4 |
| 20260507224534 | 30 | 292 | 0.0 | 1.0 | 0.00 | 0.00 | 0.00 | 82 | 1019.4 |
| 20260507223030 | 31 | 292 | 0.0 | 0.0 | 0.00 | 0.00 | 0.00 | 82 | 1019.2 |
| 20260507221532 | 31 | 292 | 0.0 | 1.0 | 0.00 | 0.00 | 0.00 | 82 | 1019.1 |
| 20260507220034 | 32 | 292 | 0.0 | 0.0 | 0.00 | 0.00 | 0.00 | 81 | 1019.0 |
| 20260507214521 | 33 | 292 | 0.0 | 1.0 | 0.00 | 0.00 | 0.00 | 80 | 1018.8 |
| 20260507213026 | 33 | 292 | 0.0 | 1.0 | 0.00 | 0.00 | 0.00 | 80 | 1018.7 |
| 20260507211517 | 34 | 292 | 0.0 | 1.0 | 0.00 | 0.00 | 0.00 | 79 | 1018.5 |
| 20260507210016 | 34 | 292 | 0.0 | 2.0 | 0.00 | 0.00 | 0.00 | 78 | 1018.3 |
| 20260507204510 | 35 | 292 | 0.0 | 1.0 | 0.00 | 0.00 | 0.00 | 78 | 1018.2 |
| 20260507203009 | 35 | 292 | 0.0 | 1.0 | 0.00 | 0.00 | 0.00 | 75 | 1018.1 |
| 20260507201508 | 36 | 292 | 0.0 | 1.0 | 0.00 | 0.00 | 0.00 | 73 | 1017.9 |
| 20260507200010 | 37 | 292 | 0.0 | 1.0 | 0.00 | 0.00 | 0.00 | 72 | 1017.8 |
| 20260507194511 | 39 | 292 | 0.0 | 2.0 | 0.00 | 0.00 | 0.00 | 70 | 1017.6 |
| 20260507193002 | 39 | 293 | 0.0 | 4.0 | 0.00 | 0.00 | 0.00 | 70 | 1017.4 |
| 20260507191603 | 40 | 319 | 2.0 | 6.0 | 0.00 | 0.00 | 0.00 | 69 | 1017.2 |
| 20260507190113 | 41 | 311 | 2.0 | 6.0 | 0.00 | 0.00 | 0.00 | 69 | 1017.2 |
| 20260507184558 | 41 | 300 | 4.0 | 9.0 | 0.00 | 0.00 | 0.00 | 67 | 1017.0 |
| 20260507183114 | 42 | 297 | 2.0 | 9.0 | 0.00 | 0.00 | 0.00 | 66 | 1016.9 |
| 20260507181559 | 43 | 317 | 4.0 | 10.0 | 0.00 | 0.00 | 0.00 | 65 | 1016.8 |
| 20260507180055 | 43 | 305 | 5.0 | 13.0 | 0.00 | 0.00 | 0.00 | 64 | 1016.6 |
| 20260507174602 | 44 | 304 | 5.0 | 14.0 | 0.00 | 0.00 | 0.00 | 62 | 1016.4 |
| 20260507173052 | 44 | 304 | 8.0 | 12.0 | 0.00 | 0.00 | 0.00 | 62 | 1016.2 |
| 20260507171548 | 45 | 278 | 4.0 | 16.0 | 0.00 | 0.00 | 0.00 | 60 | 1016.1 |
| 20260507170047 | 45 | 259 | 6.0 | 13.0 | 0.00 | 0.00 | 0.00 | 60 | 1016.0 |
| 20260507164604 | 46 | 301 | 6.0 | 13.0 | 0.00 | 0.00 | 0.00 | 59 | 1015.8 |
| 20260507163051 | 47 | 298 | 4.0 | 11.0 | 0.00 | 0.00 | 0.00 | 57 | 1015.7 |
| 20260507161552 | 48 | 299 | 6.0 | 14.0 | 0.00 | 0.00 | 0.00 | 54 | 1015.5 |
| 20260507160040 | 48 | 325 | 5.0 | 17.0 | 0.00 | 0.00 | 0.00 | 51 | 1015.3 |
| 20260507154538 | 49 | 265 | 8.0 | 20.0 | 0.00 | 0.00 | 0.00 | 50 | 1015.1 |
| 20260507153041 | 49 | 320 | 9.0 | 18.0 | 0.00 | 0.00 | 0.00 | 51 | 1015.0 |
| 20260507151537 | 49 | 308 | 10.0 | 17.0 | 0.00 | 0.00 | 0.00 | 53 | 1014.9 |
| 20260507150036 | 49 | 263 | 9.0 | 18.0 | 0.00 | 0.00 | 0.00 | 53 | 1014.9 |
| 20260507144537 | 50 | 312 | 7.0 | 19.0 | 0.00 | 0.00 | 0.00 | 52 | 1014.8 |
| 20260507143036 | 50 | 283 | 10.0 | 19.0 | 0.00 | 0.00 | 0.00 | 51 | 1014.6 |
| 20260507141533 | 51 | 296 | 10.0 | 18.0 | 0.00 | 0.00 | 0.00 | 49 | 1014.5 |
| 20260507140030 | 51 | 298 | 9.0 | 16.0 | 0.00 | 0.00 | 0.00 | 49 | 1014.2 |
| 20260507134528 | 51 | 287 | 11.0 | 17.0 | 0.00 | 0.00 | 0.00 | 46 | 1014.1 |
| 20260507133029 | 51 | 304 | 7.0 | 21.0 | 0.00 | 0.00 | 0.00 | 49 | 1014.0 |
| 20260507131525 | 52 | 296 | 8.0 | 18.0 | 0.00 | 0.00 | 0.00 | 50 | 1013.8 |
| 20260507130027 | 52 | 245 | 5.0 | 14.0 | 0.00 | 0.00 | 0.00 | 49 | 1013.6 |
| 20260507124534 | 52 | 267 | 8.0 | 19.0 | 0.00 | 0.00 | 0.00 | 50 | 1013.5 |
| 20260507123023 | 52 | 298 | 3.0 | 18.0 | 0.00 | 0.00 | 0.00 | 50 | 1013.4 |
| 20260507121520 | 52 | 273 | 4.0 | 15.0 | 0.00 | 0.00 | 0.00 | 51 | 1013.3 |
| 20260507120020 | 51 | 264 | 6.0 | 14.0 | 0.00 | 0.00 | 0.00 | 50 | 1013.4 |
| 20260507114520 | 53 | 263 | 6.0 | 17.0 | 0.00 | 0.00 | 0.00 | 49 | 1013.3 |
| 20260507113037 | 53 | 267 | 6.0 | 19.0 | 0.00 | 0.00 | 0.00 | 49 | 1013.3 |
| 20260507111519 | 52 | 263 | 5.0 | 16.0 | 0.00 | 0.00 | 0.00 | 47 | 1013.3 |
| 20260507110018 | 53 | 215 | 6.0 | 15.0 | 0.00 | 0.00 | 0.00 | 45 | 1013.3 |
| 20260507104514 | 52 | 244 | 8.0 | 18.0 | 0.00 | 0.00 | 0.00 | 44 | 1013.4 |
| 20260507103018 | 52 | 228 | 9.0 | 20.0 | 0.00 | 0.00 | 0.00 | 41 | 1013.3 |
| 20260507101517 | 50 | 258 | 4.0 | 14.0 | 0.00 | 0.00 | 0.00 | 41 | 1013.1 |
| 20260507100013 | 50 | 195 | 5.0 | 14.0 | 0.00 | 0.00 | 0.00 | 41 | 1013.3 |
| 20260507094511 | 50 | 275 | 5.0 | 19.0 | 0.00 | 0.00 | 0.00 | 39 | 1013.2 |
| 20260507093011 | 51 | 203 | 9.0 | 20.0 | 0.00 | 0.00 | 0.00 | 37 | 1013.1 |